createdAt,value
2019-03-28T00:01:20.140Z,0.70
2019-03-28T00:03:49.358Z,0.70
2019-03-28T00:06:18.269Z,0.60
2019-03-28T00:08:46.222Z,0.60
2019-03-28T00:11:15.018Z,0.50
2019-03-28T00:13:42.912Z,0.50
2019-03-28T00:16:12.174Z,0.60
2019-03-28T00:18:41.777Z,0.60
2019-03-28T00:21:10.741Z,0.50
2019-03-28T00:24:05.366Z,0.50
2019-03-28T00:26:33.336Z,0.40
2019-03-28T00:29:01.241Z,0.60
2019-03-28T00:31:29.468Z,0.80
2019-03-28T00:33:57.894Z,0.70
2019-03-28T00:36:25.833Z,0.60
2019-03-28T00:38:54.921Z,0.50
2019-03-28T00:41:23.093Z,0.50
2019-03-28T00:43:52.173Z,0.70
2019-03-28T00:46:19.997Z,0.70
2019-03-28T00:48:47.893Z,0.80
2019-03-28T00:51:15.985Z,0.80
2019-03-28T00:53:44.977Z,0.70
2019-03-28T00:56:13.652Z,0.70
2019-03-28T00:58:41.733Z,0.80
2019-03-28T01:01:09.637Z,0.80
2019-03-28T01:03:37.897Z,0.70
2019-03-28T01:06:05.949Z,0.70
2019-03-28T01:08:33.729Z,0.40
2019-03-28T01:11:01.514Z,0.30
2019-03-28T01:13:29.416Z,0.40
2019-03-28T01:15:59.045Z,0.40
2019-03-28T01:18:26.849Z,0.30
2019-03-28T01:20:54.736Z,0.30
2019-03-28T01:23:22.751Z,0.30
2019-03-28T01:25:50.537Z,0.50
2019-03-28T01:28:18.365Z,0.60
2019-03-28T01:30:46.268Z,0.60
2019-03-28T01:33:16.470Z,0.60
2019-03-28T01:35:44.228Z,0.60
2019-03-28T01:38:12.409Z,0.60
2019-03-28T01:40:40.686Z,0.50
2019-03-28T01:43:08.570Z,0.40
2019-03-28T01:45:36.441Z,0.30
2019-03-28T01:48:04.345Z,0.20
2019-03-28T01:50:32.363Z,0.10
2019-03-28T01:53:00.571Z,0.10
2019-03-28T01:55:29.645Z,0.20
2019-03-28T01:57:57.444Z,0.30
2019-03-28T02:00:26.344Z,0.20
2019-03-28T02:02:54.706Z,0.20
2019-03-28T02:05:22.598Z,0.10
2019-03-28T02:07:50.510Z,0.00
2019-03-28T02:10:18.285Z,0.00
2019-03-28T02:12:46.117Z,0.00
2019-03-28T02:15:15.965Z,-0.10
2019-03-28T02:17:44.000Z,0.00
2019-03-28T02:20:12.597Z,0.00
2019-03-28T02:22:40.568Z,-0.10
2019-03-28T02:25:09.583Z,-0.10
2019-03-28T02:27:37.709Z,0.10
2019-03-28T02:30:06.852Z,0.20
2019-03-28T02:32:35.190Z,0.20
2019-03-28T02:35:03.020Z,0.30
2019-03-28T02:37:30.733Z,0.10
2019-03-28T02:39:58.543Z,-0.10
2019-03-28T02:42:27.762Z,-0.20
2019-03-28T02:44:56.122Z,-0.20
2019-03-28T02:47:24.139Z,-0.10
2019-03-28T02:49:53.921Z,-0.10
2019-03-28T02:52:21.885Z,-0.20
2019-03-28T02:54:49.840Z,-0.40
2019-03-28T02:57:17.754Z,-0.40
2019-03-28T02:59:45.574Z,-0.30
2019-03-28T03:02:13.462Z,-0.10
2019-03-28T03:04:41.277Z,-0.10
2019-03-28T03:07:09.045Z,-0.10
2019-03-28T03:09:38.724Z,-0.10
2019-03-28T03:12:06.671Z,-0.10
2019-03-28T03:14:34.605Z,-0.10
2019-03-28T03:17:03.610Z,-0.10
2019-03-28T03:19:33.310Z,-0.10
2019-03-28T03:22:01.287Z,-0.10
2019-03-28T03:24:29.285Z,-0.10
2019-03-28T03:26:57.108Z,-0.10
2019-03-28T03:29:26.185Z,-0.10
2019-03-28T03:31:55.779Z,-0.10
2019-03-28T03:34:23.696Z,-0.20
2019-03-28T03:36:52.902Z,-0.50
2019-03-28T03:39:20.796Z,-0.50
2019-03-28T03:41:48.622Z,-0.60
2019-03-28T03:44:17.635Z,-0.60
2019-03-28T03:46:46.763Z,-0.50
2019-03-28T03:49:14.573Z,-0.40
2019-03-28T03:51:46.522Z,-0.20
2019-03-28T03:54:15.173Z,-0.30
2019-03-28T03:56:42.979Z,-0.40
2019-03-28T03:59:12.578Z,-0.40
2019-03-28T04:01:40.470Z,-0.30
2019-03-28T04:04:09.488Z,-0.20
2019-03-28T04:06:37.380Z,-0.30
2019-03-28T04:09:06.018Z,-0.20
2019-03-28T04:11:34.840Z,-0.20
2019-03-28T04:14:03.445Z,-0.20
2019-03-28T04:16:31.281Z,-0.20
2019-03-28T04:18:59.098Z,-0.40
2019-03-28T04:21:30.810Z,-0.30
2019-03-28T04:23:59.073Z,-0.40
2019-03-28T04:26:27.106Z,-0.50
2019-03-28T04:28:55.262Z,-0.60
2019-03-28T04:31:24.844Z,-0.70
2019-03-28T04:33:54.438Z,-0.70
2019-03-28T04:36:22.591Z,-0.70
2019-03-28T04:38:50.627Z,-0.70
2019-03-28T04:41:20.532Z,-0.70
2019-03-28T04:43:48.348Z,-0.80
2019-03-28T04:46:16.222Z,-0.90
2019-03-28T04:48:44.005Z,-0.80
2019-03-28T04:51:12.204Z,-0.70
2019-03-28T04:53:40.537Z,-0.60
2019-03-28T04:56:08.248Z,-0.50
2019-03-28T04:58:44.330Z,-0.60
2019-03-28T05:01:07.339Z,-0.50
2019-03-28T05:03:37.627Z,-0.50
2019-03-28T05:06:05.360Z,-0.60
2019-03-28T05:08:33.481Z,-0.60
2019-03-28T05:11:01.468Z,-0.50
2019-03-28T05:13:29.706Z,-0.60
2019-03-28T05:15:57.753Z,-0.70
2019-03-28T05:18:28.161Z,-0.90
2019-03-28T05:20:57.751Z,-0.90
2019-03-28T05:23:27.725Z,-0.70
2019-03-28T05:25:55.496Z,-0.60
2019-03-28T05:28:23.361Z,-0.70
2019-03-28T05:30:51.674Z,-0.80
2019-03-28T05:33:19.453Z,-0.80
2019-03-28T05:35:48.550Z,-0.90
2019-03-28T05:38:16.783Z,-0.90
2019-03-28T05:40:44.701Z,-0.70
2019-03-28T05:43:12.488Z,-0.70
2019-03-28T05:45:40.445Z,-0.50
2019-03-28T05:48:08.644Z,-0.50
2019-03-28T05:50:38.429Z,-0.40
2019-03-28T05:53:07.257Z,-0.20
2019-03-28T05:55:35.014Z,-0.20
2019-03-28T05:58:02.898Z,-0.10
2019-03-28T06:00:31.220Z,-0.10
2019-03-28T06:02:59.313Z,-0.10
2019-03-28T06:05:27.303Z,0.00
2019-03-28T06:07:55.577Z,0.10
2019-03-28T06:10:24.281Z,0.30
2019-03-28T06:12:52.129Z,0.30
2019-03-28T06:15:22.123Z,0.40
2019-03-28T06:17:50.568Z,0.60
2019-03-28T06:20:21.240Z,0.70
2019-03-28T06:22:49.334Z,0.90
2019-03-28T06:25:17.515Z,1.00
2019-03-28T06:27:45.385Z,1.10
2019-03-28T06:30:13.793Z,1.20
2019-03-28T06:32:43.570Z,1.30
2019-03-28T06:35:12.277Z,1.40
2019-03-28T06:37:41.545Z,1.40
2019-03-28T06:40:10.022Z,1.60
2019-03-28T06:42:38.477Z,1.70
2019-03-28T06:45:10.291Z,1.90
2019-03-28T06:47:41.170Z,2.00
2019-03-28T06:50:09.859Z,2.30
2019-03-28T06:52:38.932Z,2.70
2019-03-28T06:55:07.796Z,3.30
2019-03-28T06:57:37.049Z,4.00
2019-03-28T07:00:09.331Z,4.80
2019-03-28T07:02:37.408Z,5.70
2019-03-28T07:05:06.019Z,5.80
2019-03-28T07:07:34.504Z,6.60
2019-03-28T07:10:04.212Z,6.80
2019-03-28T07:12:32.245Z,7.50
2019-03-28T07:15:00.386Z,7.60
2019-03-28T07:17:28.868Z,7.40
2019-03-28T07:19:57.949Z,8.00
2019-03-28T07:22:25.800Z,8.20
2019-03-28T07:24:54.492Z,8.30
2019-03-28T07:27:23.221Z,8.70
2019-03-28T07:29:51.708Z,8.60
2019-03-28T07:32:19.525Z,8.80
2019-03-28T07:34:47.205Z,9.50
2019-03-28T07:37:14.981Z,10.10
2019-03-28T07:39:42.765Z,10.80
2019-03-28T07:42:10.561Z,10.80
2019-03-28T07:44:38.794Z,10.70
2019-03-28T07:47:07.677Z,10.80
2019-03-28T07:49:37.601Z,10.70
2019-03-28T07:52:07.126Z,11.50
2019-03-28T07:54:35.904Z,11.30
2019-03-28T07:57:04.582Z,11.40
2019-03-28T07:59:34.389Z,11.20
2019-03-28T08:02:02.793Z,11.20
2019-03-28T08:04:31.119Z,11.50
2019-03-28T08:06:59.627Z,12.30
2019-03-28T08:09:36.443Z,12.70
2019-03-28T08:11:58.076Z,12.30
2019-03-28T08:14:25.956Z,13.10
2019-03-28T08:16:57.214Z,14.40
2019-03-28T08:19:25.919Z,14.20
2019-03-28T08:21:54.378Z,14.10
2019-03-28T08:24:22.225Z,14.40
2019-03-28T08:26:50.782Z,14.70
2019-03-28T08:29:18.647Z,15.10
2019-03-28T08:31:47.906Z,15.10
2019-03-28T08:34:16.518Z,15.10
2019-03-28T08:36:46.066Z,15.10
2019-03-28T08:39:15.093Z,14.80
2019-03-28T08:41:43.540Z,15.10
2019-03-28T08:44:11.793Z,14.70
2019-03-28T08:46:39.862Z,15.30
2019-03-28T08:49:08.042Z,15.10
2019-03-28T08:51:36.102Z,14.60
2019-03-28T08:54:03.922Z,14.40
2019-03-28T08:56:31.730Z,14.50
2019-03-28T08:58:59.923Z,14.30
2019-03-28T09:01:27.823Z,14.80
2019-03-28T09:03:55.793Z,14.60
2019-03-28T09:06:23.585Z,15.30
2019-03-28T09:08:52.094Z,15.50
2019-03-28T09:11:21.543Z,15.60
2019-03-28T09:13:50.097Z,16.00
2019-03-28T09:16:20.220Z,15.50
2019-03-28T09:18:48.026Z,14.90
2019-03-28T09:21:15.816Z,14.60
2019-03-28T09:23:43.637Z,14.90
2019-03-28T09:26:11.519Z,15.20
2019-03-28T09:28:39.646Z,15.00
2019-03-28T09:31:19.350Z,15.20
2019-03-28T09:33:40.499Z,15.00
2019-03-28T09:36:07.492Z,15.10
2019-03-28T09:38:35.317Z,15.40
2019-03-28T09:41:03.197Z,14.90
2019-03-28T09:43:31.073Z,14.90
2019-03-28T09:46:00.355Z,15.10
2019-03-28T09:48:28.575Z,15.10
2019-03-28T09:50:56.789Z,15.00
2019-03-28T09:53:24.480Z,14.90
2019-03-28T09:55:52.317Z,15.20
2019-03-28T09:59:08.325Z,15.80
2019-03-28T10:01:39.841Z,15.40
2019-03-28T10:04:26.230Z,16.00
2019-03-28T10:06:54.049Z,16.30
2019-03-28T10:09:26.377Z,16.70
2019-03-28T10:12:20.719Z,16.20
2019-03-28T10:14:49.483Z,16.70
2019-03-28T10:17:18.508Z,16.70
2019-03-28T10:19:46.682Z,16.70
2019-03-28T10:22:14.569Z,17.30
2019-03-28T10:24:46.282Z,17.30
2019-03-28T10:27:19.050Z,17.00
2019-03-28T10:29:47.188Z,17.10
2019-03-28T10:32:16.054Z,17.90
2019-03-28T10:34:44.331Z,17.90
2019-03-28T10:37:12.821Z,17.90
2019-03-28T10:39:41.522Z,17.30
2019-03-28T10:42:09.792Z,16.90
2019-03-28T10:44:38.500Z,16.80
2019-03-28T10:47:06.951Z,16.70
2019-03-28T10:49:37.174Z,16.10
2019-03-28T10:52:11.536Z,16.30
2019-03-28T10:54:40.787Z,16.90
2019-03-28T10:57:15.440Z,17.70
2019-03-28T10:59:39.180Z,18.00
2019-03-28T11:02:07.994Z,17.70
2019-03-28T11:04:35.877Z,17.60
2019-03-28T11:07:03.757Z,16.90
2019-03-28T11:09:31.997Z,16.80
2019-03-28T11:12:00.471Z,16.60
2019-03-28T11:14:28.893Z,16.60
2019-03-28T11:16:56.684Z,17.30
2019-03-28T11:19:24.920Z,17.20
2019-03-28T11:21:53.292Z,17.90
2019-03-28T11:24:22.461Z,18.50
2019-03-28T11:26:51.267Z,18.10
2019-03-28T11:29:19.449Z,18.20
2019-03-28T11:31:51.433Z,18.20
2019-03-28T11:34:18.643Z,19.00
2019-03-28T11:36:46.907Z,18.70
2019-03-28T11:39:15.827Z,18.30
2019-03-28T11:41:44.866Z,18.70
2019-03-28T11:44:13.634Z,19.00
2019-03-28T11:46:42.089Z,18.70
2019-03-28T11:49:10.959Z,18.30
2019-03-28T11:51:39.221Z,19.20
2019-03-28T11:54:07.500Z,19.50
2019-03-28T11:56:41.816Z,19.10
2019-03-28T11:59:10.254Z,19.10
2019-03-28T12:01:39.113Z,18.80
2019-03-28T12:04:07.533Z,18.70
2019-03-28T12:06:38.599Z,19.30
2019-03-28T12:09:07.842Z,19.40
2019-03-28T12:11:36.012Z,20.30
2019-03-28T12:14:04.371Z,19.50
2019-03-28T12:16:34.719Z,19.90
2019-03-28T12:19:03.179Z,19.00
2019-03-28T12:21:38.600Z,18.70
2019-03-28T12:24:08.000Z,18.80
2019-03-28T12:26:37.541Z,19.50
2019-03-28T12:29:08.095Z,20.30
2019-03-28T12:31:38.368Z,19.10
2019-03-28T12:34:07.441Z,19.60
2019-03-28T12:36:35.607Z,19.70
2019-03-28T12:39:06.389Z,19.60
2019-03-28T12:41:36.517Z,19.70
2019-03-28T12:44:05.410Z,19.10
2019-03-28T12:46:33.684Z,19.70
2019-03-28T12:49:01.877Z,20.40
2019-03-28T12:51:30.645Z,20.80
2019-03-28T12:53:59.153Z,20.30
2019-03-28T12:56:27.713Z,20.20
2019-03-28T12:58:56.594Z,20.10
2019-03-28T13:01:25.155Z,19.40
2019-03-28T13:03:59.046Z,19.50
2019-03-28T13:06:27.482Z,20.00
2019-03-28T13:08:55.978Z,18.90
2019-03-28T13:11:24.489Z,19.70
2019-03-28T13:13:53.103Z,19.70
2019-03-28T13:16:21.390Z,19.40
2019-03-28T13:18:49.917Z,18.40
2019-03-28T13:21:18.523Z,18.30
2019-03-28T13:23:46.888Z,18.70
2019-03-28T13:26:15.466Z,19.10
2019-03-28T13:28:43.963Z,18.70
2019-03-28T13:31:12.388Z,17.50
2019-03-28T13:33:40.655Z,17.30
2019-03-28T13:36:10.543Z,16.50
2019-03-28T13:38:39.572Z,16.10
2019-03-28T13:41:08.484Z,15.70
2019-03-28T13:43:36.926Z,15.60
2019-03-28T13:46:05.308Z,15.30
2019-03-28T13:48:33.464Z,15.20
2019-03-28T13:51:01.897Z,15.60
2019-03-28T13:53:39.577Z,15.50
2019-03-28T13:55:59.406Z,15.10
2019-03-28T13:58:27.190Z,15.10
2019-03-28T14:00:56.370Z,14.70
2019-03-28T14:03:25.046Z,14.60
2019-03-28T14:05:56.570Z,15.00
2019-03-28T14:08:24.865Z,15.00
2019-03-28T14:10:53.393Z,14.60
2019-03-28T14:13:22.366Z,14.60
2019-03-28T14:15:51.714Z,14.60
2019-03-28T14:18:20.039Z,14.80
2019-03-28T14:20:49.755Z,14.70
2019-03-28T14:23:18.601Z,14.30
2019-03-28T14:25:47.146Z,14.10
2019-03-28T14:28:16.406Z,14.10
2019-03-28T14:30:44.891Z,14.20
2019-03-28T14:33:15.897Z,14.40
2019-03-28T14:35:44.404Z,14.50
2019-03-28T14:38:14.419Z,14.30
2019-03-28T14:40:43.149Z,14.30
2019-03-28T14:43:11.118Z,14.30
2019-03-28T14:45:39.388Z,14.30
2019-03-28T14:48:07.705Z,14.10
2019-03-28T14:50:38.579Z,14.20
2019-03-28T14:53:07.322Z,14.00
2019-03-28T14:55:36.750Z,14.10
2019-03-28T14:58:06.661Z,14.30
2019-03-28T15:00:46.734Z,14.20
2019-03-28T15:03:25.590Z,14.10
2019-03-28T15:05:44.886Z,13.90
2019-03-28T15:08:14.022Z,13.90
2019-03-28T15:10:42.549Z,13.80
2019-03-28T15:13:12.829Z,13.90
2019-03-28T15:15:42.503Z,14.00
2019-03-28T15:18:11.292Z,13.90
2019-03-28T15:20:40.437Z,13.80
2019-03-28T15:23:08.669Z,13.90
2019-03-28T15:25:37.927Z,13.80
2019-03-28T15:28:06.249Z,13.70
2019-03-28T15:30:34.408Z,13.60
2019-03-28T15:33:02.629Z,13.70
2019-03-28T15:35:30.749Z,13.70
2019-03-28T15:37:59.776Z,13.70
2019-03-28T15:40:28.749Z,13.70
2019-03-28T15:42:56.891Z,13.70
2019-03-28T15:45:25.190Z,13.60
2019-03-28T15:47:54.256Z,13.60
2019-03-28T15:50:22.759Z,13.60
2019-03-28T15:52:51.218Z,13.50
2019-03-28T15:55:19.370Z,13.60
2019-03-28T15:57:48.377Z,13.60
2019-03-28T16:00:17.549Z,13.50
2019-03-28T16:02:46.069Z,13.60
2019-03-28T16:05:14.708Z,13.50
2019-03-28T16:07:43.431Z,13.40
2019-03-28T16:10:14.794Z,13.40
2019-03-28T16:12:43.281Z,13.40
2019-03-28T16:15:12.281Z,13.50
2019-03-28T16:17:40.686Z,13.60
2019-03-28T16:20:09.512Z,13.70
2019-03-28T16:22:38.005Z,13.60
2019-03-28T16:25:06.816Z,13.70
2019-03-28T16:27:35.485Z,13.60
2019-03-28T16:30:07.955Z,13.60
2019-03-28T16:32:37.043Z,13.70
2019-03-28T16:35:12.976Z,13.50
2019-03-28T16:37:42.769Z,13.70
2019-03-28T16:40:11.869Z,13.20
2019-03-28T16:42:39.795Z,13.00
2019-03-28T16:45:09.402Z,13.00
2019-03-28T16:47:37.819Z,12.90
2019-03-28T16:50:06.768Z,12.80
2019-03-28T16:52:35.067Z,12.80
2019-03-28T16:55:11.387Z,12.70
2019-03-28T16:57:39.731Z,12.60
2019-03-28T17:00:12.096Z,12.70
2019-03-28T17:02:40.528Z,12.50
2019-03-28T17:05:09.371Z,12.50
2019-03-28T17:07:37.729Z,12.50
2019-03-28T17:10:07.568Z,12.40
2019-03-28T17:12:35.414Z,12.30
2019-03-28T17:15:04.196Z,12.20
2019-03-28T17:17:32.679Z,12.30
2019-03-28T17:20:01.568Z,12.30
2019-03-28T17:22:30.058Z,12.30
2019-03-28T17:24:58.599Z,12.30
2019-03-28T17:27:27.672Z,12.30
2019-03-28T17:29:55.988Z,12.30
2019-03-28T17:32:25.297Z,12.20
2019-03-28T17:34:53.409Z,12.20
2019-03-28T17:37:23.337Z,12.10
2019-03-28T17:39:51.773Z,12.10
2019-03-28T17:42:19.633Z,12.00
2019-03-28T17:44:49.292Z,12.00
2019-03-28T17:47:18.071Z,11.90
2019-03-28T17:49:46.743Z,11.90
2019-03-28T17:52:15.166Z,11.90
2019-03-28T17:54:43.480Z,11.80
2019-03-28T17:57:14.388Z,11.70
2019-03-28T17:59:45.244Z,11.60
2019-03-28T18:02:12.567Z,11.50
2019-03-28T18:04:47.778Z,11.40
2019-03-28T18:07:13.390Z,11.40
2019-03-28T18:09:41.966Z,11.40
2019-03-28T18:12:10.373Z,11.20
2019-03-28T18:14:38.626Z,11.20
2019-03-28T18:17:07.052Z,11.00
2019-03-28T18:19:35.548Z,11.00
2019-03-28T18:22:04.217Z,10.80
2019-03-28T18:24:32.762Z,10.80
2019-03-28T18:27:01.403Z,10.80
2019-03-28T18:29:29.235Z,10.80
2019-03-28T18:31:57.104Z,10.80
2019-03-28T18:34:25.270Z,10.70
2019-03-28T18:36:54.016Z,10.50
2019-03-28T18:39:22.072Z,10.50
2019-03-28T18:41:50.197Z,10.50
2019-03-28T18:44:18.496Z,10.50
2019-03-28T18:46:48.016Z,10.40
2019-03-28T18:49:16.265Z,10.30
2019-03-28T18:51:44.517Z,10.30
2019-03-28T18:54:12.692Z,10.30
2019-03-28T18:56:40.861Z,10.20
2019-03-28T18:59:08.649Z,10.20
2019-03-28T19:01:36.429Z,10.10
2019-03-28T19:04:04.213Z,10.10
2019-03-28T19:06:32.118Z,10.00
2019-03-28T19:08:59.900Z,10.00
2019-03-28T19:11:27.718Z,9.90
2019-03-28T19:13:55.509Z,9.80
2019-03-28T19:16:23.288Z,9.70
2019-03-28T19:18:51.816Z,9.80
2019-03-28T19:21:19.790Z,9.70
2019-03-28T19:23:47.946Z,9.70
2019-03-28T19:26:16.278Z,9.60
2019-03-28T19:28:44.696Z,9.50
2019-03-28T19:31:12.936Z,9.60
2019-03-28T19:33:40.987Z,9.70
2019-03-28T19:36:09.531Z,9.60
2019-03-28T19:38:37.923Z,9.60
2019-03-28T19:41:06.036Z,9.50
2019-03-28T19:43:35.011Z,9.50
2019-03-28T19:46:02.785Z,9.40
2019-03-28T19:48:30.953Z,9.40
2019-03-28T19:50:58.737Z,9.30
2019-03-28T19:53:26.957Z,9.20
2019-03-28T19:55:54.980Z,9.20
2019-03-28T19:58:23.166Z,9.00
2019-03-28T20:00:51.459Z,9.00
2019-03-28T20:03:22.713Z,9.00
2019-03-28T20:05:50.080Z,8.90
2019-03-28T20:08:18.656Z,8.90
2019-03-28T20:10:46.730Z,8.80
2019-03-28T20:13:14.540Z,8.60
2019-03-28T20:15:42.333Z,8.50
2019-03-28T20:18:10.257Z,8.50
2019-03-28T20:20:38.033Z,8.50
2019-03-28T20:23:05.892Z,8.50
2019-03-28T20:25:34.001Z,8.40
2019-03-28T20:28:01.814Z,8.40
2019-03-28T20:30:29.927Z,8.30
2019-03-28T20:32:58.216Z,8.20
2019-03-28T20:35:26.018Z,8.00
2019-03-28T20:37:54.269Z,7.90
2019-03-28T20:40:27.028Z,7.70
2019-03-28T20:42:55.499Z,7.60
2019-03-28T20:45:23.386Z,7.40
2019-03-28T20:47:52.417Z,7.40
2019-03-28T20:50:24.230Z,7.30
2019-03-28T20:52:52.497Z,7.30
2019-03-28T20:55:20.561Z,7.30
2019-03-28T20:57:48.892Z,7.30
2019-03-28T21:00:32.302Z,7.20
2019-03-28T21:03:03.066Z,7.20
2019-03-28T21:05:29.846Z,7.10
2019-03-28T21:07:57.711Z,7.00
2019-03-28T21:10:25.728Z,6.90
2019-03-28T21:12:54.048Z,6.90
2019-03-28T21:15:21.828Z,6.90
2019-03-28T21:17:49.620Z,7.00
2019-03-28T21:20:17.958Z,7.00
2019-03-28T21:22:46.638Z,6.90
2019-03-28T21:25:15.038Z,6.80
2019-03-28T21:27:43.033Z,6.70
2019-03-28T21:30:10.835Z,6.70
2019-03-28T21:32:38.807Z,6.60
2019-03-28T21:35:06.913Z,6.60
2019-03-28T21:37:35.386Z,6.50
2019-03-28T21:40:04.305Z,6.50
2019-03-28T21:42:32.577Z,6.50
2019-03-28T21:45:00.401Z,6.50
2019-03-28T21:47:28.965Z,6.60
2019-03-28T21:49:57.613Z,6.60
2019-03-28T21:52:25.971Z,6.70
2019-03-28T21:54:53.821Z,6.70
2019-03-28T21:57:22.002Z,6.80
2019-03-28T21:59:49.788Z,6.80
2019-03-28T22:02:17.669Z,6.80
2019-03-28T22:04:45.469Z,6.80
2019-03-28T22:07:13.250Z,6.90
2019-03-28T22:09:41.425Z,7.00
2019-03-28T22:12:09.931Z,7.00
2019-03-28T22:14:37.812Z,7.00
2019-03-28T22:17:05.615Z,7.00
2019-03-28T22:19:33.403Z,6.90
2019-03-28T22:22:01.947Z,6.90
2019-03-28T22:24:29.988Z,6.80
2019-03-28T22:26:58.268Z,6.70
2019-03-28T22:29:26.041Z,6.50
2019-03-28T22:31:54.041Z,6.40
2019-03-28T22:34:21.830Z,6.30
2019-03-28T22:36:57.102Z,6.20
2019-03-28T22:39:19.346Z,6.10
2019-03-28T22:41:47.218Z,6.10
2019-03-28T22:44:15.046Z,6.00
2019-03-28T22:46:42.830Z,5.90
2019-03-28T22:49:10.658Z,5.90
2019-03-28T22:51:38.458Z,5.80
2019-03-28T22:54:06.415Z,5.70
2019-03-28T22:56:34.201Z,5.60
2019-03-28T22:59:02.046Z,5.60
2019-03-28T23:01:30.242Z,5.60
2019-03-28T23:03:58.497Z,5.50
2019-03-28T23:06:26.683Z,5.40
2019-03-28T23:08:55.005Z,5.40
2019-03-28T23:11:23.116Z,5.40
2019-03-28T23:13:50.924Z,5.30
2019-03-28T23:16:19.050Z,5.30
2019-03-28T23:18:50.413Z,5.30
2019-03-28T23:21:18.245Z,5.30
2019-03-28T23:23:49.017Z,5.30
2019-03-28T23:26:18.430Z,5.20
2019-03-28T23:28:53.161Z,5.10
2019-03-28T23:31:28.263Z,5.10
2019-03-28T23:34:00.464Z,5.20
2019-03-28T23:36:36.736Z,5.20
2019-03-28T23:39:10.030Z,5.10
2019-03-28T23:41:51.101Z,5.00
2019-03-28T23:44:23.710Z,4.90
2019-03-28T23:47:04.202Z,4.70
2019-03-28T23:50:01.594Z,4.70
2019-03-28T23:52:34.249Z,4.60
2019-03-28T23:55:02.028Z,4.50
2019-03-28T23:57:29.929Z,4.50
2019-03-28T23:59:58.046Z,4.60
